createdAt,value
2022-12-27T00:01:31.886Z,9.40
2022-12-27T00:04:03.356Z,9.30
2022-12-27T00:06:38.760Z,9.30
2022-12-27T00:13:34.405Z,9.40
2022-12-27T00:16:31.525Z,9.40
2022-12-27T00:18:59.872Z,9.40
2022-12-27T00:21:56.010Z,9.60
2022-12-27T00:24:29.668Z,9.40
2022-12-27T00:27:18.137Z,9.50
2022-12-27T00:30:37.274Z,9.40
2022-12-27T00:34:00.060Z,9.50
2022-12-27T00:36:34.087Z,9.40
2022-12-27T00:39:17.453Z,9.40
2022-12-27T00:42:07.432Z,9.30
2022-12-27T00:44:35.402Z,9.30
2022-12-27T00:47:04.352Z,9.40
2022-12-27T00:57:02.811Z,9.50
2022-12-27T00:59:51.937Z,9.60
2022-12-27T01:02:35.702Z,9.60
2022-12-27T01:08:15.855Z,9.60
2022-12-27T01:11:10.850Z,9.50
2022-12-27T01:13:52.947Z,9.50
2022-12-27T01:16:48.169Z,9.60
2022-12-27T01:19:40.551Z,9.60
2022-12-27T01:22:28.092Z,9.50
2022-12-27T01:25:23.692Z,9.70
2022-12-27T01:28:12.126Z,9.60
2022-12-27T01:31:24.947Z,9.50
2022-12-27T01:34:11.368Z,9.50
2022-12-27T01:36:40.751Z,9.50
2022-12-27T01:39:27.460Z,9.60
2022-12-27T01:42:42.977Z,9.50
2022-12-27T01:45:50.282Z,9.70
2022-12-27T01:48:55.584Z,9.80
2022-12-27T01:51:41.989Z,9.80
2022-12-27T01:54:25.190Z,9.60
2022-12-27T01:57:35.430Z,9.60
2022-12-27T02:00:21.857Z,9.60
2022-12-27T02:03:11.602Z,9.60
2022-12-27T02:05:48.397Z,9.60
2022-12-27T02:08:35.117Z,9.60
2022-12-27T02:11:41.699Z,9.60
2022-12-27T02:14:32.133Z,9.70
2022-12-27T02:17:34.203Z,9.60
2022-12-27T02:24:09.624Z,9.60
2022-12-27T02:27:12.386Z,9.50
2022-12-27T02:29:47.980Z,9.60
2022-12-27T02:35:54.979Z,9.60
2022-12-27T02:38:48.125Z,9.80
2022-12-27T02:48:36.802Z,9.50
2022-12-27T02:51:41.144Z,9.50
2022-12-27T02:54:11.970Z,9.60
2022-12-27T02:57:15.874Z,9.60
2022-12-27T03:00:27.479Z,9.60
2022-12-27T03:03:24.229Z,9.50
2022-12-27T03:06:25.450Z,9.60
2022-12-27T03:08:58.779Z,9.60
2022-12-27T03:11:47.028Z,9.60
2022-12-27T03:14:42.190Z,9.60
2022-12-27T03:18:22.101Z,9.60
2022-12-27T03:20:48.760Z,9.60
2022-12-27T03:23:46.190Z,9.40
2022-12-27T03:26:54.421Z,9.40
2022-12-27T03:30:14.983Z,9.40
2022-12-27T03:33:21.445Z,9.40
2022-12-27T03:36:45.549Z,9.50
2022-12-27T03:39:35.078Z,9.50
2022-12-27T03:53:36.024Z,9.40
2022-12-27T03:56:44.854Z,9.40
2022-12-27T04:03:09.186Z,9.40
2022-12-27T04:06:02.061Z,9.30
2022-12-27T04:09:03.810Z,9.30
2022-12-27T04:11:50.456Z,9.30
2022-12-27T04:14:49.203Z,9.30
2022-12-27T04:17:36.962Z,9.30
2022-12-27T04:20:30.156Z,9.30
2022-12-27T04:23:16.490Z,9.40
2022-12-27T04:26:13.844Z,9.40
2022-12-27T04:33:24.003Z,9.30
2022-12-27T04:35:53.710Z,9.40
2022-12-27T04:38:21.859Z,9.50
2022-12-27T04:41:14.042Z,9.50
2022-12-27T04:44:06.112Z,9.50
2022-12-27T04:46:52.509Z,9.50
2022-12-27T04:49:51.094Z,9.50
2022-12-27T04:52:56.627Z,9.50
2022-12-27T04:55:28.229Z,9.50
2022-12-27T04:57:56.993Z,9.50
2022-12-27T05:00:51.786Z,9.40
2022-12-27T05:03:42.881Z,9.50
2022-12-27T05:06:36.061Z,9.50
2022-12-27T05:12:40.949Z,9.90
2022-12-27T05:15:17.939Z,10.00
2022-12-27T05:21:14.770Z,9.90
2022-12-27T05:24:16.665Z,9.80
2022-12-27T05:26:45.150Z,9.80
2022-12-27T05:29:20.073Z,9.70
2022-12-27T05:35:04.217Z,9.60
2022-12-27T05:37:55.152Z,9.70
2022-12-27T05:40:58.590Z,9.70
2022-12-27T05:43:56.453Z,9.70
2022-12-27T05:46:37.728Z,9.70
2022-12-27T05:49:16.491Z,9.60
2022-12-27T05:52:14.788Z,9.60
2022-12-27T05:55:04.186Z,9.70
2022-12-27T05:57:57.151Z,9.70
2022-12-27T06:03:14.249Z,9.70
2022-12-27T06:09:48.085Z,9.70
2022-12-27T06:13:00.802Z,9.90
2022-12-27T06:15:40.946Z,9.80
2022-12-27T06:18:58.986Z,9.70
2022-12-27T06:21:49.048Z,9.90
2022-12-27T06:27:03.418Z,9.90
2022-12-27T06:29:31.265Z,9.90
2022-12-27T06:32:24.917Z,9.70
2022-12-27T06:34:52.902Z,9.60
2022-12-27T06:37:22.517Z,9.60
2022-12-27T06:39:50.700Z,9.60
2022-12-27T06:42:21.948Z,9.60
2022-12-27T06:44:50.483Z,9.80
2022-12-27T06:47:27.648Z,9.90
2022-12-27T06:49:56.214Z,9.90
2022-12-27T06:55:59.308Z,9.70
2022-12-27T06:58:52.403Z,9.80
2022-12-27T07:01:29.652Z,9.70
2022-12-27T07:04:27.314Z,9.90
2022-12-27T07:07:20.816Z,10.00
2022-12-27T07:09:48.835Z,10.00
2022-12-27T07:12:18.797Z,10.10
2022-12-27T07:18:18.787Z,9.80
2022-12-27T07:21:32.233Z,9.90
2022-12-27T07:24:03.821Z,9.80
2022-12-27T07:27:27.961Z,9.90
2022-12-27T07:30:03.318Z,9.90
2022-12-27T07:32:31.270Z,10.10
2022-12-27T07:35:02.159Z,10.20
2022-12-27T07:38:10.145Z,10.10
2022-12-27T07:40:35.875Z,10.10
2022-12-27T07:43:34.347Z,10.10
2022-12-27T07:46:30.027Z,10.10
2022-12-27T07:49:04.597Z,10.00
2022-12-27T07:51:39.263Z,10.20
2022-12-27T07:57:12.828Z,10.10
2022-12-27T08:00:29.005Z,10.10
2022-12-27T08:03:05.872Z,10.20
2022-12-27T08:05:34.166Z,10.30
2022-12-27T08:08:27.175Z,10.20
2022-12-27T08:11:25.949Z,10.20
2022-12-27T08:14:19.220Z,10.10
2022-12-27T08:16:48.493Z,10.10
2022-12-27T08:19:16.192Z,10.20
2022-12-27T08:21:48.036Z,10.30
2022-12-27T08:24:19.245Z,10.40
2022-12-27T08:26:53.768Z,10.50
2022-12-27T08:32:35.922Z,10.20
2022-12-27T08:35:50.081Z,10.20
2022-12-27T08:38:09.191Z,10.20
2022-12-27T08:40:47.231Z,10.10
2022-12-27T08:43:24.314Z,10.20
2022-12-27T08:46:05.125Z,10.20
2022-12-27T08:48:40.171Z,10.40
2022-12-27T08:51:12.963Z,10.50
2022-12-27T08:54:07.985Z,10.50
2022-12-27T08:56:38.930Z,10.70
2022-12-27T08:59:08.282Z,10.60
2022-12-27T09:01:50.055Z,10.70
2022-12-27T09:04:24.861Z,10.60
2022-12-27T09:06:59.838Z,10.70
2022-12-27T09:09:58.066Z,10.80
2022-12-27T09:12:25.858Z,10.90
2022-12-27T09:14:57.880Z,10.80
2022-12-27T09:17:32.434Z,10.80
2022-12-27T09:23:19.552Z,11.00
2022-12-27T09:25:50.753Z,11.00
2022-12-27T09:28:31.881Z,11.00
2022-12-27T09:31:05.861Z,10.90
2022-12-27T09:36:39.089Z,11.10
2022-12-27T09:39:15.146Z,11.10
2022-12-27T09:45:43.178Z,10.90
2022-12-27T09:48:33.334Z,10.90
2022-12-27T09:51:14.877Z,10.90
2022-12-27T09:54:18.182Z,11.10
2022-12-27T09:57:20.811Z,11.10
2022-12-27T10:00:06.105Z,11.10
2022-12-27T10:08:47.799Z,11.10
2022-12-27T10:17:51.161Z,11.20
2022-12-27T10:20:33.388Z,11.20
2022-12-27T10:23:11.400Z,11.20
2022-12-27T10:25:40.208Z,11.20
2022-12-27T10:28:29.938Z,11.20
2022-12-27T10:31:05.084Z,11.30
2022-12-27T10:37:23.200Z,11.30
2022-12-27T10:39:54.433Z,11.30
2022-12-27T10:42:45.747Z,11.40
2022-12-27T10:52:20.427Z,11.70
2022-12-27T11:02:10.666Z,11.80
2022-12-27T11:05:17.883Z,11.80
2022-12-27T11:07:45.784Z,11.70
2022-12-27T11:16:47.331Z,12.00
2022-12-27T11:19:35.918Z,11.80
2022-12-27T11:22:05.554Z,11.90
2022-12-27T11:27:42.880Z,11.70
2022-12-27T11:30:45.301Z,11.90
2022-12-27T11:33:29.419Z,12.10
2022-12-27T11:36:09.630Z,12.30
2022-12-27T11:38:43.744Z,12.20
2022-12-27T11:41:33.433Z,12.30
2022-12-27T11:44:06.813Z,12.40
2022-12-27T11:46:40.994Z,12.30
2022-12-27T11:49:44.667Z,12.40
2022-12-27T11:52:18.971Z,12.20
2022-12-27T11:55:13.332Z,12.10
2022-12-27T12:01:05.269Z,11.80
2022-12-27T12:04:03.244Z,11.80
2022-12-27T12:06:46.283Z,11.70
2022-12-27T12:09:59.323Z,11.70
2022-12-27T12:12:36.705Z,11.80
2022-12-27T12:15:50.192Z,11.60
2022-12-27T12:18:44.377Z,11.90
2022-12-27T12:21:28.873Z,12.00
2022-12-27T12:24:21.774Z,12.00
2022-12-27T12:27:11.064Z,11.90
2022-12-27T12:29:53.404Z,12.10
2022-12-27T12:36:07.610Z,12.10
2022-12-27T12:38:48.939Z,12.10
2022-12-27T12:41:42.158Z,11.90
2022-12-27T12:44:14.356Z,11.70
2022-12-27T12:47:03.359Z,11.80
2022-12-27T12:53:02.596Z,12.40
2022-12-27T12:55:47.130Z,12.60
2022-12-27T12:58:21.154Z,12.70
2022-12-27T13:01:23.800Z,12.80
2022-12-27T13:04:06.530Z,13.00
2022-12-27T13:06:37.702Z,13.10
2022-12-27T13:09:43.330Z,13.00
2022-12-27T13:12:50.526Z,12.70
2022-12-27T13:15:34.034Z,12.60
2022-12-27T13:18:40.101Z,12.80
2022-12-27T13:21:30.217Z,13.00
2022-12-27T13:24:12.427Z,12.90
2022-12-27T13:27:02.627Z,12.80
2022-12-27T13:29:49.965Z,12.70
2022-12-27T13:32:26.110Z,12.60
2022-12-27T13:35:06.354Z,12.50
2022-12-27T13:37:43.802Z,12.40
2022-12-27T13:40:31.151Z,12.50
2022-12-27T13:43:20.435Z,12.50
2022-12-27T13:46:09.152Z,12.60
